Time;durP1;ratioP1;P1;durP2;ratioP2;P2;SDS_P1;SDS_P2;PMS_P1;PMS_P2;Temp;Humidity;BMP_temperature;BMP_pressure;BME280_temperature;BME280_humidity;BME280_pressure;Samples;Min_cycle;Max_cycle;Signal;HPM_P1;HPM_P2
2023/05/05 02:22:33;;;;;;;;;;;;;;;22.19;50.90;101113.53;7248695;19;153467;-60
2023/05/05 02:25:00;;;;;;;;;;;;;;;22.18;50.87;101114.66;7254202;19;154441;-60
2023/05/05 02:27:30;;;;;;;;;;;;;;;22.17;51.16;101118.63;7250336;19;153813;-60
2023/05/05 02:29:58;;;;;;;;;;;;;;;22.14;50.92;101125.72;7247233;19;155480;-61
2023/05/05 02:32:26;;;;;;;;;;;;;;;22.14;51.18;101119.25;7249671;19;153849;-61
2023/05/05 02:34:54;;;;;;;;;;;;;;;22.15;50.89;101118.94;7246994;19;154839;-62
2023/05/05 02:37:22;;;;;;;;;;;;;;;22.13;51.08;101115.59;7244827;19;153268;-62
2023/05/05 02:39:57;;;;;;;;;;;;;;;22.14;51.25;101116.44;7245755;19;153882;-62
2023/05/05 02:42:28;;;;;;;;;;;;;;;22.13;51.15;101109.16;7251033;19;152110;-62
2023/05/05 02:44:57;;;;;;;;;;;;;;;22.14;51.56;101116.44;7246797;19;152741;-62
2023/05/05 02:47:27;;;;;;;;;;;;;;;22.12;51.23;101125.19;7256023;19;153800;-61
2023/05/05 02:49:55;;;;;;;;;;;;;;;22.11;51.49;101126.38;7244888;19;152923;-61
2023/05/05 02:52:22;;;;;;;;;;;;;;;22.11;51.07;101128.34;7253246;19;154022;-60
2023/05/05 02:54:49;;;;;;;;;;;;;;;22.10;51.11;101121.03;7248219;19;153663;-61
2023/05/05 02:57:19;;;;;;;;;;;;;;;22.08;51.51;101121.34;7246327;19;154706;-60
2023/05/05 02:59:52;;;;;;;;;;;;;;;22.09;51.35;101123.00;7245000;19;153731;-62
2023/05/05 03:02:23;;;;;;;;;;;;;;;22.07;51.12;101119.69;7247365;19;153661;-62
2023/05/05 03:04:53;;;;;;;;;;;;;;;22.08;51.28;101124.16;7244942;19;153408;-59
2023/05/05 03:07:23;;;;;;;;;;;;;;;22.07;51.01;101118.88;7254880;19;153956;-60
2023/05/05 03:09:56;;;;;;;;;;;;;;;22.07;51.14;101127.31;7264609;19;154021;-60
2023/05/05 03:12:26;;;;;;;;;;;;;;;22.04;51.29;101114.69;7256522;19;154050;-60
2023/05/05 03:14:54;;;;;;;;;;;;;;;22.04;51.50;101113.84;7252927;19;153081;-62
2023/05/05 03:17:23;;;;;;;;;;;;;;;22.03;51.21;101118.63;7253051;19;154257;-60
2023/05/05 03:19:50;;;;;;;;;;;;;;;22.04;51.49;101116.66;7252957;19;152114;-60
2023/05/05 03:22:17;;;;;;;;;;;;;;;22.02;51.43;101118.97;7253455;19;154239;-62
2023/05/05 03:24:48;;;;;;;;;;;;;;;22.01;51.40;101115.31;7249149;19;156760;-62
2023/05/05 03:27:15;;;;;;;;;;;;;;;22.01;51.46;101117.31;7252800;19;154179;-62
2023/05/05 03:29:42;;;;;;;;;;;;;;;21.99;51.35;101114.78;7251812;19;152952;-62
2023/05/05 03:32:09;;;;;;;;;;;;;;;21.98;51.45;101112.31;7258066;19;154309;-62
2023/05/05 03:34:36;;;;;;;;;;;;;;;21.96;52.02;101115.44;7252894;19;154275;-63
2023/05/05 03:37:03;;;;;;;;;;;;;;;21.98;51.63;101117.94;7255650;19;155800;-62
2023/05/05 03:39:30;;;;;;;;;;;;;;;21.95;51.88;101115.72;7255524;19;153375;-62
2023/05/05 03:41:57;;;;;;;;;;;;;;;21.96;51.62;101115.44;7257416;19;153048;-62
2023/05/05 03:44:24;;;;;;;;;;;;;;;21.95;51.75;101112.91;7252300;19;153309;-61
2023/05/05 03:46:51;;;;;;;;;;;;;;;21.93;51.54;101110.44;7251049;19;153989;-60
2023/05/05 03:49:18;;;;;;;;;;;;;;;21.93;51.39;101106.78;7250630;19;152604;-62
2023/05/05 03:51:46;;;;;;;;;;;;;;;21.91;51.63;101107.06;7250955;19;153448;-61
2023/05/05 03:54:13;;;;;;;;;;;;;;;21.90;51.81;101107.38;7261874;19;154144;-60
2023/05/05 03:56:40;;;;;;;;;;;;;;;21.87;51.70;101100.41;7249531;19;153151;-61
2023/05/05 03:59:07;;;;;;;;;;;;;;;21.90;51.96;101101.75;7252646;19;153242;-62
2023/05/05 04:01:34;;;;;;;;;;;;;;;21.89;51.84;101102.91;7255892;19;153672;-62
2023/05/05 04:04:01;;;;;;;;;;;;;;;21.87;51.89;101100.41;7254545;19;154660;-62
2023/05/05 04:06:28;;;;;;;;;;;;;;;21.87;51.47;101094.78;7256633;19;153694;-61
2023/05/05 04:08:55;;;;;;;;;;;;;;;21.85;51.91;101107.50;7252506;19;153629;-61
2023/05/05 04:11:22;;;;;;;;;;;;;;;21.85;51.41;101115.94;7254378;19;153954;-61
2023/05/05 04:13:49;;;;;;;;;;;;;;;21.83;51.85;101113.44;7255021;19;153028;-62
2023/05/05 04:16:16;;;;;;;;;;;;;;;21.82;51.70;101111.75;7260432;19;153593;-61
2023/05/05 04:18:43;;;;;;;;;;;;;;;21.82;51.60;101108.94;7252307;19;153538;-61
2023/05/05 04:21:10;;;;;;;;;;;;;;;21.81;51.44;101112.91;7255500;19;154252;-61
2023/05/05 04:23:37;;;;;;;;;;;;;;;21.80;51.56;101104.78;7253195;19;153558;-63
2023/05/05 04:26:04;;;;;;;;;;;;;;;21.80;51.52;101110.41;7252120;19;153614;-61
2023/05/05 04:28:31;;;;;;;;;;;;;;;21.78;51.80;101119.16;7249697;19;155982;-61
2023/05/05 04:30:59;;;;;;;;;;;;;;;21.79;51.48;101114.38;7252854;19;154344;-61
2023/05/05 04:33:26;;;;;;;;;;;;;;;21.78;51.61;101118.31;7254551;19;154175;-61
2023/05/05 04:35:54;;;;;;;;;;;;;;;21.77;51.66;101116.66;7260113;19;154349;-61
2023/05/05 04:38:21;;;;;;;;;;;;;;;21.76;51.91;101115.81;7251165;19;152346;-61
2023/05/05 04:40:48;;;;;;;;;;;;;;;21.74;52.00;101118.97;7249523;19;154828;-61
2023/05/05 04:43:15;;;;;;;;;;;;;;;21.76;51.71;101129.06;7253889;19;154732;-61
2023/05/05 04:45:50;;;;;;;;;;;;;;;21.72;52.23;101118.41;7251158;19;153740;-63
2023/05/05 04:48:19;;;;;;;;;;;;;;;21.75;51.99;101119.78;7249804;19;154428;-62
2023/05/05 04:50:46;;;;;;;;;;;;;;;21.73;51.71;101120.09;7251995;19;154202;-62
2023/05/05 04:53:13;;;;;;;;;;;;;;;21.72;51.92;101120.41;7253560;19;153098;-62
2023/05/05 04:55:40;;;;;;;;;;;;;;;21.71;52.02;101124.38;7250091;19;155541;-62
2023/05/05 04:58:07;;;;;;;;;;;;;;;21.71;51.95;101121.56;7260445;19;153921;-62
2023/05/05 05:00:35;;;;;;;;;;;;;;;21.71;52.24;101124.38;7250993;19;152799;-62
2023/05/05 05:03:03;;;;;;;;;;;;;;;21.69;52.26;101129.47;7249658;19;154938;-61
2023/05/05 05:05:30;;;;;;;;;;;;;;;21.68;51.87;101131.44;7252721;19;153146;-61
2023/05/05 05:07:57;;;;;;;;;;;;;;;21.68;51.84;101133.41;7252511;19;153948;-61
2023/05/05 05:10:24;;;;;;;;;;;;;;;21.66;52.19;101127.28;7248142;19;153265;-62
2023/05/05 05:12:51;;;;;;;;;;;;;;;21.68;51.94;101124.97;7254363;19;153585;-61
2023/05/05 05:15:18;;;;;;;;;;;;;;;21.68;52.17;101139.03;7249060;19;154722;-61
2023/05/05 05:17:45;;;;;;;;;;;;;;;21.66;52.04;101132.91;7252007;19;152597;-61
2023/05/05 05:20:12;;;;;;;;;;;;;;;21.65;52.20;101140.50;7258338;19;153389;-61
2023/05/05 05:22:39;;;;;;;;;;;;;;;21.65;52.21;101134.06;7255406;19;153649;-61
2023/05/05 05:25:07;;;;;;;;;;;;;;;21.64;51.83;101141.66;7249741;19;153838;-61
2023/05/05 05:27:34;;;;;;;;;;;;;;;21.66;51.96;101138.53;7254028;19;154796;-61
2023/05/05 05:30:01;;;;;;;;;;;;;;;21.65;51.99;101151.75;7245747;19;153825;-60
2023/05/05 05:32:28;;;;;;;;;;;;;;;21.64;51.92;101147.28;7250221;19;153002;-61
2023/05/05 05:34:56;;;;;;;;;;;;;;;21.63;52.34;101145.59;7250496;19;153652;-61
2023/05/05 05:37:23;;;;;;;;;;;;;;;21.63;51.76;101151.22;7249986;19;154084;-61
2023/05/05 05:39:50;;;;;;;;;;;;;;;21.62;51.84;101148.75;7249832;19;154317;-61
2023/05/05 05:42:17;;;;;;;;;;;;;;;21.59;52.19;101158.63;7259415;19;153349;-61
2023/05/05 05:44:44;;;;;;;;;;;;;;;21.58;52.42;101156.94;7251095;19;155023;-61
2023/05/05 05:47:11;;;;;;;;;;;;;;;21.56;52.11;101142.38;7253305;19;153484;-61
2023/05/05 05:49:38;;;;;;;;;;;;;;;21.57;52.56;101143.22;7247503;19;154407;-62
2023/05/05 05:52:05;;;;;;;;;;;;;;;21.57;52.03;101151.66;7249602;19;153972;-61
2023/05/05 05:54:34;;;;;;;;;;;;;;;21.58;52.24;101148.50;7253455;19;153431;-61
2023/05/05 05:57:01;;;;;;;;;;;;;;;21.58;52.23;101156.94;7249140;19;156844;-61
2023/05/05 05:59:28;;;;;;;;;;;;;;;21.57;51.97;101151.66;7246505;19;153675;-62
2023/05/05 06:01:55;;;;;;;;;;;;;;;21.58;52.26;101161.72;7252978;19;154073;-61
2023/05/05 06:04:22;;;;;;;;;;;;;;;21.56;52.13;101156.44;7254620;19;153699;-60
2023/05/05 06:06:50;;;;;;;;;;;;;;;21.55;52.13;101162.38;7250000;19;154204;-60
2023/05/05 06:09:17;;;;;;;;;;;;;;;21.54;52.05;101157.88;7245664;19;154699;-60
2023/05/05 06:11:44;;;;;;;;;;;;;;;21.52;52.24;101161.00;7251823;19;154335;-60
2023/05/05 06:14:11;;;;;;;;;;;;;;;21.52;52.59;101161.00;7249052;19;153831;-60
2023/05/05 06:16:38;;;;;;;;;;;;;;;21.55;52.13;101167.97;7247362;19;154216;-60
2023/05/05 06:19:08;;;;;;;;;;;;;;;21.52;52.64;101160.19;7249713;19;153084;-60
2023/05/05 06:21:36;;;;;;;;;;;;;;;21.53;52.74;101161.84;7250240;19;154301;-61
2023/05/05 06:24:03;;;;;;;;;;;;;;;21.53;52.68;101151.41;7244570;19;154488;-60
2023/05/05 06:26:30;;;;;;;;;;;;;;;21.52;52.63;101158.22;7258559;19;153974;-60
2023/05/05 06:28:57;;;;;;;;;;;;;;;21.53;52.07;101151.41;7244857;19;154134;-61
2023/05/05 06:31:24;;;;;;;;;;;;;;;21.52;51.76;101152.59;7249704;19;152330;-59
2023/05/05 06:33:51;;;;;;;;;;;;;;;21.40;50.82;101149.41;7251184;19;154647;-60
2023/05/05 06:36:18;;;;;;;;;;;;;;;21.37;50.90;101150.03;7247547;19;154440;-59
2023/05/05 06:38:45;;;;;;;;;;;;;;;21.19;50.90;101151.78;7249401;19;152487;-59
2023/05/05 06:41:12;;;;;;;;;;;;;;;21.13;51.00;101157.78;7244041;19;155773;-59
2023/05/05 06:43:43;;;;;;;;;;;;;;;21.08;51.25;101163.44;7250389;19;154920;-59
2023/05/05 06:46:10;;;;;;;;;;;;;;;21.17;50.76;101167.25;7255780;19;154787;-59
2023/05/05 06:48:37;;;;;;;;;;;;;;;21.09;50.75;101165.97;7248935;19;153351;-59
2023/05/05 06:51:04;;;;;;;;;;;;;;;21.07;50.63;101168.25;7242270;19;154782;-59
2023/05/05 06:53:31;;;;;;;;;;;;;;;21.06;50.94;101172.22;7252279;19;154211;-59
2023/05/05 06:55:59;;;;;;;;;;;;;;;21.05;50.90;101183.75;7248734;19;154419;-60
2023/05/05 06:58:26;;;;;;;;;;;;;;;21.02;51.02;101181.56;7251169;19;153307;-60
2023/05/05 07:00:53;;;;;;;;;;;;;;;21.06;50.89;101186.25;7246273;19;153757;-59
2023/05/05 07:03:20;;;;;;;;;;;;;;;21.09;50.89;101188.44;7248607;19;153639;-59
2023/05/05 07:05:47;;;;;;;;;;;;;;;21.09;50.76;101196.88;7247780;19;153003;-59
2023/05/05 07:08:14;;;;;;;;;;;;;;;21.05;50.73;101184.56;7256152;19;153476;-58
2023/05/05 07:10:42;;;;;;;;;;;;;;;21.06;50.82;101191.03;7249606;19;154135;-59
2023/05/05 07:13:10;;;;;;;;;;;;;;;21.07;50.17;101198.34;7247844;19;153596;-59
2023/05/05 07:15:45;;;;;;;;;;;;;;;21.04;50.50;101198.91;7245492;19;153853;-59
2023/05/05 07:18:12;;;;;;;;;;;;;;;21.01;50.04;101194.75;7245547;19;154168;-59
2023/05/05 07:20:39;;;;;;;;;;;;;;;21.01;50.71;101202.34;7245658;19;154182;-59
2023/05/05 07:23:07;;;;;;;;;;;;;;;21.03;50.24;101202.91;7246074;19;153287;-59
2023/05/05 07:25:34;;;;;;;;;;;;;;;21.01;50.68;101202.34;7248569;19;153936;-58
2023/05/05 07:28:02;;;;;;;;;;;;;;;20.98;50.87;101197.34;7247690;19;154168;-58
2023/05/05 07:30:30;;;;;;;;;;;;;;;21.21;51.06;101204.88;7253288;19;155120;-59
2023/05/05 07:32:58;;;;;;;;;;;;;;;21.35;50.64;101207.72;7248068;19;153162;-60
2023/05/05 07:35:26;;;;;;;;;;;;;;;21.45;50.23;101196.28;7247042;19;154472;-60
2023/05/05 07:37:53;;;;;;;;;;;;;;;21.53;49.97;101213.28;7249010;19;153291;-60
2023/05/05 07:40:21;;;;;;;;;;;;;;;21.62;50.00;101214.22;7246872;19;154818;-60
2023/05/05 07:42:50;;;;;;;;;;;;;;;21.68;50.00;101198.94;7243958;19;155244;-57
2023/05/05 07:45:18;;;;;;;;;;;;;;;21.79;49.66;101204.38;7244813;19;153258;-60
2023/05/05 07:47:45;;;;;;;;;;;;;;;21.86;49.70;101200.00;7246124;19;153940;-61
2023/05/05 07:50:12;;;;;;;;;;;;;;;21.93;49.17;101199.63;7248057;19;154539;-60
2023/05/05 07:52:39;;;;;;;;;;;;;;;21.97;49.09;101195.88;7260829;19;153318;-60
2023/05/05 07:55:13;;;;;;;;;;;;;;;22.02;49.05;101209.00;7252561;19;153612;-59
2023/05/05 07:57:40;;;;;;;;;;;;;;;22.07;48.92;101203.28;7256206;19;154544;-60
2023/05/05 08:00:09;;;;;;;;;;;;;;;22.11;48.61;101195.88;7249310;19;153785;-61
2023/05/05 08:02:37;;;;;;;;;;;;;;;22.14;48.51;101198.91;7252134;19;155710;-61
2023/05/05 08:05:04;;;;;;;;;;;;;;;22.18;48.05;101202.75;7249165;19;153679;-60
2023/05/05 08:07:32;;;;;;;;;;;;;;;22.23;47.76;101204.63;7253673;19;152951;-60
2023/05/05 08:09:59;;;;;;;;;;;;;;;22.25;47.88;101202.34;7253789;19;154861;-60
2023/05/05 08:12:27;;;;;;;;;;;;;;;22.26;47.53;101203.97;7258069;19;154467;-61
2023/05/05 08:14:54;;;;;;;;;;;;;;;22.30;47.56;101216.31;7257927;19;154079;-61
2023/05/05 08:17:24;;;;;;;;;;;;;;;22.32;47.51;101211.19;7254431;19;153497;-61
2023/05/05 08:19:52;;;;;;;;;;;;;;;22.34;47.04;101208.91;7252521;19;153558;-60
2023/05/05 08:22:20;;;;;;;;;;;;;;;22.35;47.21;101207.72;7254198;19;154073;-60
2023/05/05 08:24:47;;;;;;;;;;;;;;;22.36;47.10;101206.59;7248348;19;153534;-61
2023/05/05 08:27:14;;;;;;;;;;;;;;;22.40;46.79;101202.00;7259227;19;154238;-60
2023/05/05 08:29:42;;;;;;;;;;;;;;;22.40;46.98;101192.69;7248931;19;153686;-60
2023/05/05 08:32:09;;;;;;;;;;;;;;;22.40;46.82;101201.16;7257230;19;154502;-64
2023/05/05 08:34:36;;;;;;;;;;;;;;;22.43;46.80;101211.81;7251687;19;154807;-59
2023/05/05 08:37:03;;;;;;;;;;;;;;;22.41;46.52;101200.00;7264577;19;153797;-61
2023/05/05 08:39:30;;;;;;;;;;;;;;;22.41;46.31;101200.84;7255355;19;153908;-60
2023/05/05 08:41:57;;;;;;;;;;;;;;;22.43;46.04;101197.72;7256346;19;153573;-60
2023/05/05 08:44:25;;;;;;;;;;;;;;;22.43;46.50;101209.81;7257173;19;154343;-60
2023/05/05 08:46:53;;;;;;;;;;;;;;;22.41;46.15;101212.09;7258071;19;153718;-59
2023/05/05 08:49:21;;;;;;;;;;;;;;;22.41;46.34;101211.28;7249721;19;154077;-60
2023/05/05 08:51:50;;;;;;;;;;;;;;;22.43;46.14;101209.00;7250594;19;154072;-60
2023/05/05 08:54:18;;;;;;;;;;;;;;;22.42;46.25;101208.16;7251701;19;154127;-60
2023/05/05 08:56:49;;;;;;;;;;;;;;;22.44;46.04;101216.28;7258025;19;153294;-60
2023/05/05 08:59:17;;;;;;;;;;;;;;;22.43;46.06;101203.34;7250118;19;154487;-61
2023/05/05 09:01:45;;;;;;;;;;;;;;;22.43;46.25;101209.00;7253809;19;153878;-60
2023/05/05 09:04:12;;;;;;;;;;;;;;;22.46;45.87;101213.97;7245793;19;153556;-60
2023/05/05 09:06:40;;;;;;;;;;;;;;;22.42;46.01;101216.59;7250720;19;153796;-60
2023/05/05 09:09:08;;;;;;;;;;;;;;;22.40;45.87;101213.25;7250554;19;155834;-60
2023/05/05 09:11:36;;;;;;;;;;;;;;;22.44;45.81;101214.28;7253839;19;154452;-60
2023/05/05 09:14:03;;;;;;;;;;;;;;;22.41;46.07;101214.94;7243619;19;155256;-60
2023/05/05 09:16:31;;;;;;;;;;;;;;;22.41;45.80;101223.38;7249420;19;155855;-60
2023/05/05 09:19:00;;;;;;;;;;;;;;;22.41;45.82;101220.56;7254319;19;153571;-60
2023/05/05 09:21:28;;;;;;;;;;;;;;;22.36;45.91;101220.66;7199243;19;156344;-60
2023/05/05 09:24:07;;;;;;;;;;;;;;;22.38;45.55;101228.81;7236717;19;156112;-60
2023/05/05 09:26:36;;;;;;;;;;;;;;;22.38;45.70;101223.19;7243848;19;154350;-60
2023/05/05 09:29:02;;;;;;;;;;;;;;;22.41;45.39;101231.81;7242808;19;154158;-60
2023/05/05 09:31:32;;;;;;;;;;;;;;;22.44;45.56;101222.72;7245886;19;151978;-60
2023/05/05 09:34:00;;;;;;;;;;;;;;;22.48;45.84;101217.31;7244551;19;156628;-61
2023/05/05 09:36:40;;;;;;;;;;;;;;;22.53;45.58;101222.84;7246557;19;154527;-60
2023/05/05 09:39:07;;;;;;;;;;;;;;;22.59;45.40;101216.78;7243772;19;153266;-60
2023/05/05 09:41:38;;;;;;;;;;;;;;;22.65;45.50;101209.03;7251985;19;154571;-60
2023/05/05 09:44:05;;;;;;;;;;;;;;;22.71;45.45;101221.91;7246841;19;154352;-62
2023/05/05 09:46:32;;;;;;;;;;;;;;;22.76;45.56;101218.16;7252490;19;152844;-60
2023/05/05 09:49:16;;;;;;;;;;;;;;;22.81;45.46;101220.81;7243588;19;154568;-60
2023/05/05 09:51:44;;;;;;;;;;;;;;;22.86;45.54;101209.44;7246381;19;153556;-61
2023/05/05 09:54:33;;;;;;;;;;;;;;;22.93;44.97;101209.84;7249339;19;154887;-60
2023/05/05 09:57:00;;;;;;;;;;;;;;;22.98;45.00;101209.72;7251459;19;154763;-60
2023/05/05 09:59:26;;;;;;;;;;;;;;;23.04;44.73;101208.41;7246579;19;154230;-62
2023/05/05 10:02:08;;;;;;;;;;;;;;;23.04;44.63;101199.97;7248644;19;153614;-62
2023/05/05 10:04:35;;;;;;;;;;;;;;;23.14;44.44;101212.97;7252852;19;154421;-62
2023/05/05 10:07:02;;;;;;;;;;;;;;;23.11;44.39;101194.75;7247111;19;153569;-62
2023/05/05 10:09:31;;;;;;;;;;;;;;;23.18;44.52;101197.94;7246124;19;153744;-63
2023/05/05 10:12:01;;;;;;;;;;;;;;;23.26;44.12;101196.34;7251392;19;154542;-62
2023/05/05 10:14:30;;;;;;;;;;;;;;;23.30;44.35;101192.56;7243921;19;155981;-62
2023/05/05 10:16:58;;;;;;;;;;;;;;;23.32;44.16;101195.03;7248764;19;154939;-62
2023/05/05 10:19:27;;;;;;;;;;;;;;;23.33;44.27;101199.53;7245111;19;153707;-62
2023/05/05 10:21:58;;;;;;;;;;;;;;;23.32;44.07;101198.69;7245105;19;154105;-61
2023/05/05 10:24:28;;;;;;;;;;;;;;;23.33;43.72;101191.06;7243053;19;153464;-61
2023/05/05 10:26:56;;;;;;;;;;;;;;;23.32;44.00;101197.84;7254906;19;154636;-61
2023/05/05 10:29:27;;;;;;;;;;;;;;;23.33;43.65;101188.25;7244292;19;153810;-61
2023/05/05 10:31:53;;;;;;;;;;;;;;;23.43;43.70;101188.81;7252063;19;153658;-61
2023/05/05 10:34:24;;;;;;;;;;;;;;;23.45;43.96;101175.25;7249509;19;155446;-62
2023/05/05 10:36:50;;;;;;;;;;;;;;;23.43;43.77;101176.72;7243725;19;153742;-61
2023/05/05 10:39:18;;;;;;;;;;;;;;;23.43;43.82;101166.25;7244567;19;152858;-62
2023/05/05 10:41:46;;;;;;;;;;;;;;;23.42;43.77;101170.22;7247705;19;153604;-62
2023/05/05 10:44:13;;;;;;;;;;;;;;;23.40;43.57;101168.88;7242684;19;153018;-59
2023/05/05 10:46:41;;;;;;;;;;;;;;;23.40;43.80;101177.34;7257739;19;154230;-62
2023/05/05 10:49:11;;;;;;;;;;;;;;;23.37;43.08;101178.81;7240558;19;154280;-62
2023/05/05 10:51:38;;;;;;;;;;;;;;;23.33;43.00;101176.97;7246676;19;153931;-61
2023/05/05 10:54:18;;;;;;;;;;;;;;;23.28;43.32;101179.91;7243359;19;152451;-62
2023/05/05 10:56:45;;;;;;;;;;;;;;;23.27;43.24;101181.91;7245785;19;154462;-62
2023/05/05 10:59:31;;;;;;;;;;;;;;;23.27;43.26;101179.09;7243627;19;154064;-61
2023/05/05 11:01:58;;;;;;;;;;;;;;;23.29;43.58;101176.78;7250665;19;153843;-62
2023/05/05 11:04:25;;;;;;;;;;;;;;;23.35;43.26;101186.75;7247611;19;154221;-62
2023/05/05 11:07:24;;;;;;;;;;;;;;;23.40;43.36;101180.16;7246773;19;153822;-62
2023/05/05 11:09:55;;;;;;;;;;;;;;;23.44;43.54;101173.56;7251853;19;153987;-62
2023/05/05 11:12:22;;;;;;;;;;;;;;;23.44;43.40;101170.75;7245596;19;152301;-62
2023/05/05 11:15:07;;;;;;;;;;;;;;;23.43;43.76;101171.91;7243973;19;154131;-61
2023/05/05 11:17:44;;;;;;;;;;;;;;;23.38;43.60;101166.41;7242154;19;155025;-62
2023/05/05 11:20:11;;;;;;;;;;;;;;;23.36;44.04;101165.03;7244838;19;153915;-62
2023/05/05 11:22:57;;;;;;;;;;;;;;;23.33;44.04;101160.88;7245064;19;153287;-61
2023/05/05 11:25:35;;;;;;;;;;;;;;;23.31;44.16;101159.53;7243688;19;154227;-62
2023/05/05 11:28:05;;;;;;;;;;;;;;;23.27;43.90;101162.16;7252304;19;153567;-61
2023/05/05 11:30:32;;;;;;;;;;;;;;;23.26;43.87;101159.69;7254319;19;153954;-62
2023/05/05 11:33:38;;;;;;;;;;;;;;;23.24;44.27;101174.09;7260291;19;154815;-61
2023/05/05 11:36:09;;;;;;;;;;;;;;;23.20;44.05;101167.44;7248589;19;154575;-61
2023/05/05 11:38:36;;;;;;;;;;;;;;;23.19;44.24;101167.75;7252300;19;156098;-61
2023/05/05 11:41:16;;;;;;;;;;;;;;;23.13;44.42;101169.03;7257225;19;153934;-61
2023/05/05 11:43:43;;;;;;;;;;;;;;;23.15;44.61;101176.03;7250548;19;154471;-62
2023/05/05 11:46:13;;;;;;;;;;;;;;;23.14;44.39;101156.59;7250179;19;153643;-62
2023/05/05 11:48:51;;;;;;;;;;;;;;;23.12;44.97;101162.59;7249970;19;153859;-62
2023/05/05 11:51:18;;;;;;;;;;;;;;;23.11;44.55;101160.91;7253752;19;155447;-61
2023/05/05 11:53:46;;;;;;;;;;;;;;;23.11;45.24;101151.63;7250752;19;154152;-62
2023/05/05 11:56:22;;;;;;;;;;;;;;;23.07;45.41;101151.44;7256542;19;153338;-62
2023/05/05 11:59:09;;;;;;;;;;;;;;;23.03;45.02;101139.94;7249946;19;155460;-62
2023/05/05 12:01:40;;;;;;;;;;;;;;;23.01;45.20;101142.28;7254747;19;154191;-62
2023/05/05 12:04:10;;;;;;;;;;;;;;;22.99;45.53;101138.94;7251703;19;153618;-61
2023/05/05 12:06:37;;;;;;;;;;;;;;;23.03;45.24;101141.97;7250936;19;153881;-62
2023/05/05 12:09:05;;;;;;;;;;;;;;;23.02;45.43;101140.28;7252516;19;152551;-62
2023/05/05 12:11:31;;;;;;;;;;;;;;;22.98;45.04;101137.28;7252050;19;152546;-61
2023/05/05 12:14:10;;;;;;;;;;;;;;;22.96;45.02;101127.47;7251037;19;154688;-61
2023/05/05 12:16:37;;;;;;;;;;;;;;;22.98;45.16;101133.63;7252810;19;153129;-61
2023/05/05 12:19:05;;;;;;;;;;;;;;;22.95;45.34;101134.25;7257684;19;153763;-61
2023/05/05 12:21:35;;;;;;;;;;;;;;;22.93;45.15;101139.38;7252912;19;153383;-62
2023/05/05 12:24:03;;;;;;;;;;;;;;;22.92;45.14;101146.16;7251058;19;154139;-62
2023/05/05 12:26:30;;;;;;;;;;;;;;;22.91;45.02;101138.88;7249011;19;154198;-62
2023/05/05 12:28:58;;;;;;;;;;;;;;;22.88;44.74;101131.91;7254393;19;152918;-61
2023/05/05 12:31:38;;;;;;;;;;;;;;;22.88;45.27;101143.16;7248924;19;153733;-62
2023/05/05 12:34:06;;;;;;;;;;;;;;;22.88;44.95;101139.50;7250060;19;153404;-62
2023/05/05 12:36:33;;;;;;;;;;;;;;;22.88;45.01;101143.16;7248070;19;154945;-62
2023/05/05 12:39:00;;;;;;;;;;;;;;;22.86;44.55;101144.63;7249949;19;154273;-63
2023/05/05 12:41:27;;;;;;;;;;;;;;;22.86;44.49;101139.00;7255950;19;153554;-62
2023/05/05 12:43:58;;;;;;;;;;;;;;;22.89;44.31;101129.91;7250427;19;153793;-62
2023/05/05 12:46:25;;;;;;;;;;;;;;;22.84;44.34;101133.69;7249860;19;154438;-62
2023/05/05 12:48:59;;;;;;;;;;;;;;;22.81;44.67;101130.66;7245402;19;152523;-62
2023/05/05 12:51:26;;;;;;;;;;;;;;;22.77;44.42;101113.56;7251502;19;152243;-61
2023/05/05 12:54:22;;;;;;;;;;;;;;;22.79;44.27;101116.06;7245123;19;153441;-61
2023/05/05 12:56:50;;;;;;;;;;;;;;;22.80;44.74;101129.03;7251963;19;153659;-61
2023/05/05 12:59:22;;;;;;;;;;;;;;;22.79;44.71;101116.06;7249191;19;153962;-62
2023/05/05 13:01:50;;;;;;;;;;;;;;;22.80;44.69;101123.38;7252426;19;152363;-61
2023/05/05 13:04:18;;;;;;;;;;;;;;;22.79;44.44;101108.47;7247781;19;156762;-61
2023/05/05 13:06:45;;;;;;;;;;;;;;;22.79;44.77;101114.09;7250103;19;154884;-61
2023/05/05 13:09:25;;;;;;;;;;;;;;;22.79;44.45;101116.06;7249387;19;154144;-62
2023/05/05 13:11:53;;;;;;;;;;;;;;;22.81;44.83;101119.38;7247397;19;152468;-62
2023/05/05 13:14:20;;;;;;;;;;;;;;;22.81;44.66;101116.56;7241266;19;154128;-61
2023/05/05 13:16:47;;;;;;;;;;;;;;;22.79;44.46;101104.81;7248866;19;154930;-61
2023/05/05 13:19:14;;;;;;;;;;;;;;;22.75;44.55;101095.34;7242156;19;154382;-62
2023/05/05 13:21:41;;;;;;;;;;;;;;;22.76;44.46;101099.81;7252920;19;153739;-62
2023/05/05 13:24:08;;;;;;;;;;;;;;;22.77;44.25;101096.66;7252343;19;153886;-61
2023/05/05 13:26:34;;;;;;;;;;;;;;;22.76;44.29;101097.81;7233109;19;154448;-62
2023/05/05 13:29:01;;;;;;;;;;;;;;;22.76;44.42;101097.81;7247175;19;154900;-62
2023/05/05 13:31:28;;;;;;;;;;;;;;;22.77;44.50;101109.91;7246701;19;153202;-62
2023/05/05 13:33:55;;;;;;;;;;;;;;;22.76;44.21;101102.63;7250621;19;154528;-61
2023/05/05 13:36:21;;;;;;;;;;;;;;;22.74;44.45;101104.94;7248901;19;153107;-62
2023/05/05 13:38:48;;;;;;;;;;;;;;;22.73;44.78;101111.72;7247346;19;153991;-61
2023/05/05 13:41:15;;;;;;;;;;;;;;;22.74;44.75;101116.19;7249263;19;154585;-62
2023/05/05 13:43:40;;;;;;;;;;;;;;;22.74;44.26;101102.13;7249762;19;154066;-62
2023/05/05 13:46:11;;;;;;;;;;;;;;;22.73;44.36;101106.06;7254580;19;154728;-62
2023/05/05 13:48:45;;;;;;;;;;;;;;;22.72;44.52;101101.59;7251085;19;153146;-62
2023/05/05 13:51:14;;;;;;;;;;;;;;;22.72;44.49;101110.88;7249129;19;154489;-62
2023/05/05 13:53:42;;;;;;;;;;;;;;;22.74;44.45;101108.59;7248990;19;154794;-63
2023/05/05 13:56:09;;;;;;;;;;;;;;;22.72;44.25;101118.50;7250359;19;154830;-62
2023/05/05 13:58:36;;;;;;;;;;;;;;;22.69;44.32;101116.28;7248789;19;153510;-62
2023/05/05 14:01:03;;;;;;;;;;;;;;;22.72;44.42;101110.03;7245696;19;155622;-61
2023/05/05 14:03:30;;;;;;;;;;;;;;;22.71;44.15;101106.41;7248529;19;153414;-62
2023/05/05 14:05:56;;;;;;;;;;;;;;;22.71;44.40;101106.41;7252037;19;154666;-61
2023/05/05 14:08:23;;;;;;;;;;;;;;;22.69;44.54;101096.56;7257341;19;157041;-62
2023/05/05 14:10:50;;;;;;;;;;;;;;;22.68;44.34;101092.91;7251370;19;154617;-62
2023/05/05 14:13:17;;;;;;;;;;;;;;;22.67;44.33;101090.44;7252446;19;153564;-61
2023/05/05 14:15:44;;;;;;;;;;;;;;;22.63;44.21;101091.06;7249876;19;153472;-61
2023/05/05 14:18:11;;;;;;;;;;;;;;;22.64;44.13;101086.25;7249678;19;154381;-62
2023/05/05 14:20:38;;;;;;;;;;;;;;;22.61;44.60;101096.19;7244577;19;153652;-62
2023/05/05 14:23:05;;;;;;;;;;;;;;;22.62;44.41;101085.78;7250634;19;153147;-61
2023/05/05 14:25:31;;;;;;;;;;;;;;;22.60;44.20;101097.34;7250069;19;153755;-62
2023/05/05 14:27:58;;;;;;;;;;;;;;;22.58;44.60;101099.63;7245662;19;155225;-62
2023/05/05 14:30:25;;;;;;;;;;;;;;;22.57;44.14;101097.16;7257772;19;155347;-62
2023/05/05 14:32:52;;;;;;;;;;;;;;;22.56;44.39;101099.13;7248200;19;154526;-62
2023/05/05 14:35:19;;;;;;;;;;;;;;;22.54;44.41;101089.31;7249222;19;153361;-62
2023/05/05 14:37:45;;;;;;;;;;;;;;;22.52;44.52;101094.47;7247220;19;154939;-62
2023/05/05 14:40:12;;;;;;;;;;;;;;;22.55;43.97;101091.84;7246723;19;154527;-62
2023/05/05 14:45:07;;;;;;;;;;;;;;;22.54;44.10;101080.88;7249429;19;153674;-62
2023/05/05 14:47:34;;;;;;;;;;;;;;;22.56;44.24;101079.41;7249241;19;153346;-62
2023/05/05 14:50:01;;;;;;;;;;;;;;;22.55;44.24;101083.38;7249686;19;154940;-62
2023/05/05 14:52:28;;;;;;;;;;;;;;;22.55;44.52;101063.66;7254725;19;153284;-61
2023/05/05 14:54:55;;;;;;;;;;;;;;;22.57;44.39;101074.63;7247487;19;152926;-62
2023/05/05 14:57:21;;;;;;;;;;;;;;;22.56;44.09;101065.34;7250098;19;154680;-62
2023/05/05 14:59:50;;;;;;;;;;;;;;;22.55;44.63;101069.31;7246585;19;156418;-62